sensor_id;sensor_type;location;lat;lon;timestamp;temperature;humidity
48535;DHT22;34323;52.022;5.686;2023-07-24T00:01:14;24.00;99.90
48535;DHT22;34323;52.022;5.686;2023-07-24T00:03:40;24.10;99.90
48535;DHT22;34323;52.022;5.686;2023-07-24T00:06:05;23.90;99.90
48535;DHT22;34323;52.022;5.686;2023-07-24T00:08:31;23.90;99.90
48535;DHT22;34323;52.022;5.686;2023-07-24T00:10:56;23.90;99.90
48535;DHT22;34323;52.022;5.686;2023-07-24T00:13:22;23.40;99.90
48535;DHT22;34323;52.022;5.686;2023-07-24T00:15:48;23.40;99.90
48535;DHT22;34323;52.022;5.686;2023-07-24T00:18:13;23.50;99.90
48535;DHT22;34323;52.022;5.686;2023-07-24T00:20:39;23.50;99.90
48535;DHT22;34323;52.022;5.686;2023-07-24T00:23:04;23.10;99.90
48535;DHT22;34323;52.022;5.686;2023-07-24T00:25:30;23.10;99.90
48535;DHT22;34323;52.022;5.686;2023-07-24T00:27:55;23.20;99.90
48535;DHT22;34323;52.022;5.686;2023-07-24T00:30:21;23.50;99.90
48535;DHT22;34323;52.022;5.686;2023-07-24T00:32:46;23.60;99.90
48535;DHT22;34323;52.022;5.686;2023-07-24T00:35:12;23.40;99.90
48535;DHT22;34323;52.022;5.686;2023-07-24T00:37:37;23.60;99.90
48535;DHT22;34323;52.022;5.686;2023-07-24T00:40:03;23.80;99.90
48535;DHT22;34323;52.022;5.686;2023-07-24T00:42:29;24.00;99.90
48535;DHT22;34323;52.022;5.686;2023-07-24T00:44:55;23.70;99.90
48535;DHT22;34323;52.022;5.686;2023-07-24T00:47:21;23.20;99.90
48535;DHT22;34323;52.022;5.686;2023-07-24T00:49:47;23.30;99.90
48535;DHT22;34323;52.022;5.686;2023-07-24T00:52:14;23.60;99.90
48535;DHT22;34323;52.022;5.686;2023-07-24T00:54:40;23.70;99.90
48535;DHT22;34323;52.022;5.686;2023-07-24T00:57:06;23.70;99.90
48535;DHT22;34323;52.022;5.686;2023-07-24T00:59:32;23.80;99.90
48535;DHT22;34323;52.022;5.686;2023-07-24T01:01:58;23.90;99.90
48535;DHT22;34323;52.022;5.686;2023-07-24T01:04:23;23.90;99.90
48535;DHT22;34323;52.022;5.686;2023-07-24T01:06:49;23.80;99.90
48535;DHT22;34323;52.022;5.686;2023-07-24T01:09:14;23.70;99.90
48535;DHT22;34323;52.022;5.686;2023-07-24T01:11:50;23.60;99.90
48535;DHT22;34323;52.022;5.686;2023-07-24T01:14:24;23.70;99.90
48535;DHT22;34323;52.022;5.686;2023-07-24T01:16:54;24.00;99.90
48535;DHT22;34323;52.022;5.686;2023-07-24T01:19:33;24.00;99.90
48535;DHT22;34323;52.022;5.686;2023-07-24T01:22:14;24.00;99.90
48535;DHT22;34323;52.022;5.686;2023-07-24T01:27:32;23.60;99.90
48535;DHT22;34323;52.022;5.686;2023-07-24T01:29:58;23.60;99.90
48535;DHT22;34323;52.022;5.686;2023-07-24T01:32:24;23.70;99.90
48535;DHT22;34323;52.022;5.686;2023-07-24T01:34:52;23.70;99.90
48535;DHT22;34323;52.022;5.686;2023-07-24T01:37:20;23.60;99.90
48535;DHT22;34323;52.022;5.686;2023-07-24T01:39:46;23.70;99.90
48535;DHT22;34323;52.022;5.686;2023-07-24T01:42:13;23.90;99.90
48535;DHT22;34323;52.022;5.686;2023-07-24T01:44:39;24.00;99.90
48535;DHT22;34323;52.022;5.686;2023-07-24T01:47:05;23.60;99.90
48535;DHT22;34323;52.022;5.686;2023-07-24T01:49:30;23.30;99.90
48535;DHT22;34323;52.022;5.686;2023-07-24T01:51:56;23.50;99.90
48535;DHT22;34323;52.022;5.686;2023-07-24T01:54:23;23.60;99.90
48535;DHT22;34323;52.022;5.686;2023-07-24T01:56:48;23.80;99.90
48535;DHT22;34323;52.022;5.686;2023-07-24T01:59:14;24.10;99.90
48535;DHT22;34323;52.022;5.686;2023-07-24T02:01:39;24.20;99.90
48535;DHT22;34323;52.022;5.686;2023-07-24T02:04:05;24.10;99.90
48535;DHT22;34323;52.022;5.686;2023-07-24T02:06:30;23.80;99.90
48535;DHT22;34323;52.022;5.686;2023-07-24T02:08:56;23.60;99.90
48535;DHT22;34323;52.022;5.686;2023-07-24T02:11:21;23.60;99.90
48535;DHT22;34323;52.022;5.686;2023-07-24T02:13:47;23.40;99.90
48535;DHT22;34323;52.022;5.686;2023-07-24T02:16:13;23.70;99.90
48535;DHT22;34323;52.022;5.686;2023-07-24T02:18:41;23.40;99.90
48535;DHT22;34323;52.022;5.686;2023-07-24T02:21:06;23.20;99.90
48535;DHT22;34323;52.022;5.686;2023-07-24T02:23:32;23.30;99.90
48535;DHT22;34323;52.022;5.686;2023-07-24T02:25:57;23.30;99.90
48535;DHT22;34323;52.022;5.686;2023-07-24T02:28:23;23.30;99.90
48535;DHT22;34323;52.022;5.686;2023-07-24T02:30:49;23.40;99.90
48535;DHT22;34323;52.022;5.686;2023-07-24T02:33:14;23.50;99.90
48535;DHT22;34323;52.022;5.686;2023-07-24T02:35:41;23.60;99.90
48535;DHT22;34323;52.022;5.686;2023-07-24T02:38:07;23.70;99.90
48535;DHT22;34323;52.022;5.686;2023-07-24T02:40:33;23.70;99.90
48535;DHT22;34323;52.022;5.686;2023-07-24T02:42:59;23.70;99.90
48535;DHT22;34323;52.022;5.686;2023-07-24T02:45:26;23.60;99.90
48535;DHT22;34323;52.022;5.686;2023-07-24T02:47:51;23.40;99.90
48535;DHT22;34323;52.022;5.686;2023-07-24T02:50:17;23.50;99.90
48535;DHT22;34323;52.022;5.686;2023-07-24T02:52:42;23.60;99.90
48535;DHT22;34323;52.022;5.686;2023-07-24T02:55:08;23.70;99.90
48535;DHT22;34323;52.022;5.686;2023-07-24T02:57:34;23.60;99.90
48535;DHT22;34323;52.022;5.686;2023-07-24T02:59:59;23.70;99.90
48535;DHT22;34323;52.022;5.686;2023-07-24T03:02:25;23.40;99.90
48535;DHT22;34323;52.022;5.686;2023-07-24T03:04:50;23.50;99.90
48535;DHT22;34323;52.022;5.686;2023-07-24T03:07:16;23.60;99.90
48535;DHT22;34323;52.022;5.686;2023-07-24T03:09:41;23.50;99.90
48535;DHT22;34323;52.022;5.686;2023-07-24T03:12:07;23.40;99.90
48535;DHT22;34323;52.022;5.686;2023-07-24T03:14:33;23.50;99.90
48535;DHT22;34323;52.022;5.686;2023-07-24T03:16:58;23.70;99.90
48535;DHT22;34323;52.022;5.686;2023-07-24T03:19:24;24.00;99.90
48535;DHT22;34323;52.022;5.686;2023-07-24T03:21:49;24.10;99.90
48535;DHT22;34323;52.022;5.686;2023-07-24T03:24:15;24.20;99.90
48535;DHT22;34323;52.022;5.686;2023-07-24T03:26:41;24.30;99.90
48535;DHT22;34323;52.022;5.686;2023-07-24T03:29:06;24.40;99.90
48535;DHT22;34323;52.022;5.686;2023-07-24T03:31:32;24.40;99.90
48535;DHT22;34323;52.022;5.686;2023-07-24T03:33:57;24.40;99.90
48535;DHT22;34323;52.022;5.686;2023-07-24T03:36:23;24.40;99.90
48535;DHT22;34323;52.022;5.686;2023-07-24T03:38:48;24.30;99.90
48535;DHT22;34323;52.022;5.686;2023-07-24T03:41:14;24.40;99.90
48535;DHT22;34323;52.022;5.686;2023-07-24T03:43:39;24.50;99.90
48535;DHT22;34323;52.022;5.686;2023-07-24T03:46:05;24.70;99.90
48535;DHT22;34323;52.022;5.686;2023-07-24T03:48:30;24.70;99.90
48535;DHT22;34323;52.022;5.686;2023-07-24T03:51:00;24.70;99.90
48535;DHT22;34323;52.022;5.686;2023-07-24T03:53:26;24.80;99.90
48535;DHT22;34323;52.022;5.686;2023-07-24T03:55:52;24.80;99.90
48535;DHT22;34323;52.022;5.686;2023-07-24T03:58:17;24.90;99.90
48535;DHT22;34323;52.022;5.686;2023-07-24T04:00:43;24.90;99.90
48535;DHT22;34323;52.022;5.686;2023-07-24T04:03:09;24.90;99.90
48535;DHT22;34323;52.022;5.686;2023-07-24T04:05:35;24.70;99.90
48535;DHT22;34323;52.022;5.686;2023-07-24T04:08:01;24.40;99.90
48535;DHT22;34323;52.022;5.686;2023-07-24T04:10:26;24.10;99.90
48535;DHT22;34323;52.022;5.686;2023-07-24T04:12:53;24.00;99.90
48535;DHT22;34323;52.022;5.686;2023-07-24T04:15:18;23.90;99.90
48535;DHT22;34323;52.022;5.686;2023-07-24T04:17:44;24.00;99.90
48535;DHT22;34323;52.022;5.686;2023-07-24T04:20:09;24.00;99.90
48535;DHT22;34323;52.022;5.686;2023-07-24T04:22:35;24.10;99.90
48535;DHT22;34323;52.022;5.686;2023-07-24T04:25:01;24.00;99.90
48535;DHT22;34323;52.022;5.686;2023-07-24T04:27:26;23.90;99.90
48535;DHT22;34323;52.022;5.686;2023-07-24T04:29:52;23.90;99.90
48535;DHT22;34323;52.022;5.686;2023-07-24T04:32:17;23.60;99.90
48535;DHT22;34323;52.022;5.686;2023-07-24T04:34:43;23.70;99.90
48535;DHT22;34323;52.022;5.686;2023-07-24T04:37:08;23.20;99.90
48535;DHT22;34323;52.022;5.686;2023-07-24T04:39:34;23.30;99.90
48535;DHT22;34323;52.022;5.686;2023-07-24T04:41:59;23.10;99.90
48535;DHT22;34323;52.022;5.686;2023-07-24T04:44:25;23.20;99.90
48535;DHT22;34323;52.022;5.686;2023-07-24T04:46:51;22.90;99.90
48535;DHT22;34323;52.022;5.686;2023-07-24T04:49:16;23.10;99.90
48535;DHT22;34323;52.022;5.686;2023-07-24T04:51:42;23.30;99.90
48535;DHT22;34323;52.022;5.686;2023-07-24T04:54:07;23.10;99.90
48535;DHT22;34323;52.022;5.686;2023-07-24T04:56:33;22.90;99.90
48535;DHT22;34323;52.022;5.686;2023-07-24T04:58:58;22.90;99.90
48535;DHT22;34323;52.022;5.686;2023-07-24T05:01:24;22.70;99.90
48535;DHT22;34323;52.022;5.686;2023-07-24T05:03:50;22.80;99.90
48535;DHT22;34323;52.022;5.686;2023-07-24T05:06:15;23.00;99.90
48535;DHT22;34323;52.022;5.686;2023-07-24T05:08:41;22.90;99.90
48535;DHT22;34323;52.022;5.686;2023-07-24T05:11:06;22.90;99.90
48535;DHT22;34323;52.022;5.686;2023-07-24T05:13:32;22.70;99.90
48535;DHT22;34323;52.022;5.686;2023-07-24T05:15:57;22.80;99.90
48535;DHT22;34323;52.022;5.686;2023-07-24T05:18:23;22.90;99.90
48535;DHT22;34323;52.022;5.686;2023-07-24T05:20:49;22.90;99.90
48535;DHT22;34323;52.022;5.686;2023-07-24T05:23:16;22.80;99.90
48535;DHT22;34323;52.022;5.686;2023-07-24T05:25:42;22.90;99.90
48535;DHT22;34323;52.022;5.686;2023-07-24T05:28:08;22.80;99.90
48535;DHT22;34323;52.022;5.686;2023-07-24T05:30:34;22.60;99.90
48535;DHT22;34323;52.022;5.686;2023-07-24T05:33:00;22.60;99.90
48535;DHT22;34323;52.022;5.686;2023-07-24T05:35:26;22.80;99.90
48535;DHT22;34323;52.022;5.686;2023-07-24T05:37:51;23.10;99.90
48535;DHT22;34323;52.022;5.686;2023-07-24T05:40:17;23.30;99.90
48535;DHT22;34323;52.022;5.686;2023-07-24T05:42:43;23.30;99.90
48535;DHT22;34323;52.022;5.686;2023-07-24T05:45:10;23.30;99.90
48535;DHT22;34323;52.022;5.686;2023-07-24T05:47:37;23.50;99.90
48535;DHT22;34323;52.022;5.686;2023-07-24T05:50:02;23.60;99.90
48535;DHT22;34323;52.022;5.686;2023-07-24T05:52:28;23.60;99.90
48535;DHT22;34323;52.022;5.686;2023-07-24T05:54:54;23.50;99.90
48535;DHT22;34323;52.022;5.686;2023-07-24T05:57:20;23.60;99.90
48535;DHT22;34323;52.022;5.686;2023-07-24T05:59:45;23.40;99.90
48535;DHT22;34323;52.022;5.686;2023-07-24T06:02:11;23.10;99.90
48535;DHT22;34323;52.022;5.686;2023-07-24T06:04:36;22.80;99.90
48535;DHT22;34323;52.022;5.686;2023-07-24T06:07:02;22.80;99.90
48535;DHT22;34323;52.022;5.686;2023-07-24T06:09:28;22.90;99.90
48535;DHT22;34323;52.022;5.686;2023-07-24T06:11:53;23.10;99.90
48535;DHT22;34323;52.022;5.686;2023-07-24T06:14:19;23.00;99.90
48535;DHT22;34323;52.022;5.686;2023-07-24T06:16:45;22.90;99.90
48535;DHT22;34323;52.022;5.686;2023-07-24T06:19:10;23.00;99.90
48535;DHT22;34323;52.022;5.686;2023-07-24T06:21:36;23.20;99.90
48535;DHT22;34323;52.022;5.686;2023-07-24T06:24:01;23.40;99.90
48535;DHT22;34323;52.022;5.686;2023-07-24T06:26:27;23.30;99.90
48535;DHT22;34323;52.022;5.686;2023-07-24T06:28:53;23.30;99.90
48535;DHT22;34323;52.022;5.686;2023-07-24T06:31:18;23.30;99.90
48535;DHT22;34323;52.022;5.686;2023-07-24T06:33:44;23.30;99.90
48535;DHT22;34323;52.022;5.686;2023-07-24T06:36:10;22.90;99.90
48535;DHT22;34323;52.022;5.686;2023-07-24T06:38:36;22.80;99.90
48535;DHT22;34323;52.022;5.686;2023-07-24T06:41:02;22.90;99.90
48535;DHT22;34323;52.022;5.686;2023-07-24T06:43:28;22.70;99.90
48535;DHT22;34323;52.022;5.686;2023-07-24T06:45:54;22.30;99.90
48535;DHT22;34323;52.022;5.686;2023-07-24T06:48:19;22.00;99.90
48535;DHT22;34323;52.022;5.686;2023-07-24T06:50:45;22.00;99.90
48535;DHT22;34323;52.022;5.686;2023-07-24T06:53:10;22.30;99.90
48535;DHT22;34323;52.022;5.686;2023-07-24T06:55:36;22.70;99.90
48535;DHT22;34323;52.022;5.686;2023-07-24T06:58:02;22.90;99.90
48535;DHT22;34323;52.022;5.686;2023-07-24T07:00:27;22.30;99.90
48535;DHT22;34323;52.022;5.686;2023-07-24T07:02:53;22.00;99.90
48535;DHT22;34323;52.022;5.686;2023-07-24T07:05:18;22.30;99.90
48535;DHT22;34323;52.022;5.686;2023-07-24T07:07:44;22.40;99.90
48535;DHT22;34323;52.022;5.686;2023-07-24T07:10:10;22.60;99.90
48535;DHT22;34323;52.022;5.686;2023-07-24T07:12:35;22.60;99.90
48535;DHT22;34323;52.022;5.686;2023-07-24T07:15:01;22.60;99.90
48535;DHT22;34323;52.022;5.686;2023-07-24T07:17:26;22.80;99.90
48535;DHT22;34323;52.022;5.686;2023-07-24T07:19:52;22.90;99.90
48535;DHT22;34323;52.022;5.686;2023-07-24T07:22:17;22.80;99.90
48535;DHT22;34323;52.022;5.686;2023-07-24T07:24:43;22.70;99.90
48535;DHT22;34323;52.022;5.686;2023-07-24T07:27:09;22.90;99.90
48535;DHT22;34323;52.022;5.686;2023-07-24T07:29:35;23.00;99.90
48535;DHT22;34323;52.022;5.686;2023-07-24T07:32:00;22.60;99.90
48535;DHT22;34323;52.022;5.686;2023-07-24T07:34:26;22.70;99.90
48535;DHT22;34323;52.022;5.686;2023-07-24T07:36:51;23.10;99.90
48535;DHT22;34323;52.022;5.686;2023-07-24T07:39:17;23.30;99.90
48535;DHT22;34323;52.022;5.686;2023-07-24T07:41:42;23.30;99.90
48535;DHT22;34323;52.022;5.686;2023-07-24T07:44:08;22.90;99.90
48535;DHT22;34323;52.022;5.686;2023-07-24T07:46:34;23.00;99.90
48535;DHT22;34323;52.022;5.686;2023-07-24T07:48:59;23.30;99.90
48535;DHT22;34323;52.022;5.686;2023-07-24T07:51:25;23.70;99.90
48535;DHT22;34323;52.022;5.686;2023-07-24T07:53:51;24.00;99.90
48535;DHT22;34323;52.022;5.686;2023-07-24T07:56:17;24.30;99.90
48535;DHT22;34323;52.022;5.686;2023-07-24T07:58:42;24.40;99.90
48535;DHT22;34323;52.022;5.686;2023-07-24T08:01:10;24.20;99.90
48535;DHT22;34323;52.022;5.686;2023-07-24T08:03:35;24.00;99.90
48535;DHT22;34323;52.022;5.686;2023-07-24T08:06:02;23.70;99.90
48535;DHT22;34323;52.022;5.686;2023-07-24T08:08:27;23.30;99.90
48535;DHT22;34323;52.022;5.686;2023-07-24T08:10:53;23.20;99.90
48535;DHT22;34323;52.022;5.686;2023-07-24T08:13:18;23.20;99.90
48535;DHT22;34323;52.022;5.686;2023-07-24T08:15:44;22.80;99.90
48535;DHT22;34323;52.022;5.686;2023-07-24T08:18:09;22.60;99.90
48535;DHT22;34323;52.022;5.686;2023-07-24T08:20:36;22.60;99.90
48535;DHT22;34323;52.022;5.686;2023-07-24T08:23:02;22.60;99.90
48535;DHT22;34323;52.022;5.686;2023-07-24T08:25:27;22.60;99.90
48535;DHT22;34323;52.022;5.686;2023-07-24T08:27:53;22.60;99.90
48535;DHT22;34323;52.022;5.686;2023-07-24T08:30:18;22.60;99.90
48535;DHT22;34323;52.022;5.686;2023-07-24T08:32:44;22.70;99.90
48535;DHT22;34323;52.022;5.686;2023-07-24T08:35:10;22.90;99.90
48535;DHT22;34323;52.022;5.686;2023-07-24T08:37:35;22.70;99.90
48535;DHT22;34323;52.022;5.686;2023-07-24T08:40:01;23.00;99.90
48535;DHT22;34323;52.022;5.686;2023-07-24T08:42:28;23.50;99.90
48535;DHT22;34323;52.022;5.686;2023-07-24T08:44:56;23.70;99.90
48535;DHT22;34323;52.022;5.686;2023-07-24T08:47:23;23.90;99.90
48535;DHT22;34323;52.022;5.686;2023-07-24T08:49:50;23.90;99.90
48535;DHT22;34323;52.022;5.686;2023-07-24T08:52:16;23.40;99.90
48535;DHT22;34323;52.022;5.686;2023-07-24T08:54:42;23.30;99.90
48535;DHT22;34323;52.022;5.686;2023-07-24T08:57:08;23.00;99.90
48535;DHT22;34323;52.022;5.686;2023-07-24T08:59:34;23.40;99.90
48535;DHT22;34323;52.022;5.686;2023-07-24T09:02:01;23.90;99.90
48535;DHT22;34323;52.022;5.686;2023-07-24T09:04:26;24.40;99.90
48535;DHT22;34323;52.022;5.686;2023-07-24T09:06:53;24.50;99.90
48535;DHT22;34323;52.022;5.686;2023-07-24T09:09:18;24.50;99.90
48535;DHT22;34323;52.022;5.686;2023-07-24T09:11:52;24.10;99.90
48535;DHT22;34323;52.022;5.686;2023-07-24T09:14:25;23.80;99.90
48535;DHT22;34323;52.022;5.686;2023-07-24T09:17:09;23.40;99.90
48535;DHT22;34323;52.022;5.686;2023-07-24T09:19:35;23.10;99.90
48535;DHT22;34323;52.022;5.686;2023-07-24T09:22:16;23.30;99.90
48535;DHT22;34323;52.022;5.686;2023-07-24T09:24:52;23.40;99.90
48535;DHT22;34323;52.022;5.686;2023-07-24T09:27:18;23.10;99.90
48535;DHT22;34323;52.022;5.686;2023-07-24T09:29:44;23.50;99.90
48535;DHT22;34323;52.022;5.686;2023-07-24T09:32:23;23.60;99.90
48535;DHT22;34323;52.022;5.686;2023-07-24T09:34:49;24.20;99.90
48535;DHT22;34323;52.022;5.686;2023-07-24T09:37:30;24.80;99.90
48535;DHT22;34323;52.022;5.686;2023-07-24T09:39:55;25.40;99.90
48535;DHT22;34323;52.022;5.686;2023-07-24T09:42:34;25.70;99.90
48535;DHT22;34323;52.022;5.686;2023-07-24T09:45:04;25.40;99.90
48535;DHT22;34323;52.022;5.686;2023-07-24T09:47:30;25.30;99.90
48535;DHT22;34323;52.022;5.686;2023-07-24T09:49:56;25.30;99.90
48535;DHT22;34323;52.022;5.686;2023-07-24T09:52:24;24.80;99.90
48535;DHT22;34323;52.022;5.686;2023-07-24T09:55:13;24.20;99.90
48535;DHT22;34323;52.022;5.686;2023-07-24T09:57:41;24.00;99.90
48535;DHT22;34323;52.022;5.686;2023-07-24T10:00:09;24.20;99.90
48535;DHT22;34323;52.022;5.686;2023-07-24T10:02:37;24.00;99.90
48535;DHT22;34323;52.022;5.686;2023-07-24T10:05:02;24.00;99.90
48535;DHT22;34323;52.022;5.686;2023-07-24T10:07:28;24.50;99.90
48535;DHT22;34323;52.022;5.686;2023-07-24T10:09:54;24.50;99.90
48535;DHT22;34323;52.022;5.686;2023-07-24T10:12:20;24.80;99.90
48535;DHT22;34323;52.022;5.686;2023-07-24T10:14:47;25.10;99.90
48535;DHT22;34323;52.022;5.686;2023-07-24T10:17:13;25.30;99.90
48535;DHT22;34323;52.022;5.686;2023-07-24T10:19:40;25.50;99.90
48535;DHT22;34323;52.022;5.686;2023-07-24T10:22:09;25.50;99.90
48535;DHT22;34323;52.022;5.686;2023-07-24T10:24:34;25.10;99.90
48535;DHT22;34323;52.022;5.686;2023-07-24T10:27:02;24.90;99.90
48535;DHT22;34323;52.022;5.686;2023-07-24T10:29:27;25.20;99.90
48535;DHT22;34323;52.022;5.686;2023-07-24T10:31:54;25.40;99.90
48535;DHT22;34323;52.022;5.686;2023-07-24T10:34:20;25.20;99.90
48535;DHT22;34323;52.022;5.686;2023-07-24T10:36:46;25.10;99.90
48535;DHT22;34323;52.022;5.686;2023-07-24T10:39:15;25.30;99.90
48535;DHT22;34323;52.022;5.686;2023-07-24T10:41:42;25.30;99.90
48535;DHT22;34323;52.022;5.686;2023-07-24T10:44:09;25.70;99.90
48535;DHT22;34323;52.022;5.686;2023-07-24T10:46:39;25.80;99.90
48535;DHT22;34323;52.022;5.686;2023-07-24T10:49:06;25.70;99.90
48535;DHT22;34323;52.022;5.686;2023-07-24T10:51:32;25.90;99.90
48535;DHT22;34323;52.022;5.686;2023-07-24T10:53:59;25.40;99.90
48535;DHT22;34323;52.022;5.686;2023-07-24T10:56:25;25.50;99.90
48535;DHT22;34323;52.022;5.686;2023-07-24T10:58:51;25.30;99.90
48535;DHT22;34323;52.022;5.686;2023-07-24T11:01:18;25.20;99.90
48535;DHT22;34323;52.022;5.686;2023-07-24T11:03:44;24.90;99.90
48535;DHT22;34323;52.022;5.686;2023-07-24T11:06:17;24.80;99.90
48535;DHT22;34323;52.022;5.686;2023-07-24T11:08:54;24.60;99.90
48535;DHT22;34323;52.022;5.686;2023-07-24T11:11:21;24.60;99.90
48535;DHT22;34323;52.022;5.686;2023-07-24T11:13:48;25.00;99.90
48535;DHT22;34323;52.022;5.686;2023-07-24T11:16:13;24.90;99.90
48535;DHT22;34323;52.022;5.686;2023-07-24T11:18:50;25.10;99.90
48535;DHT22;34323;52.022;5.686;2023-07-24T11:21:17;25.50;99.90
48535;DHT22;34323;52.022;5.686;2023-07-24T11:23:51;25.30;99.90
48535;DHT22;34323;52.022;5.686;2023-07-24T11:26:21;25.40;99.90
48535;DHT22;34323;52.022;5.686;2023-07-24T11:28:47;25.10;99.90
48535;DHT22;34323;52.022;5.686;2023-07-24T11:31:12;24.80;99.90
48535;DHT22;34323;52.022;5.686;2023-07-24T11:33:40;25.10;99.90
48535;DHT22;34323;52.022;5.686;2023-07-24T11:36:08;25.50;99.90
48535;DHT22;34323;52.022;5.686;2023-07-24T11:38:34;25.40;99.90
48535;DHT22;34323;52.022;5.686;2023-07-24T11:41:01;25.60;99.90
48535;DHT22;34323;52.022;5.686;2023-07-24T11:43:26;25.60;99.90
48535;DHT22;34323;52.022;5.686;2023-07-24T11:45:53;25.70;99.90
48535;DHT22;34323;52.022;5.686;2023-07-24T11:48:20;26.00;99.90
48535;DHT22;34323;52.022;5.686;2023-07-24T11:50:53;25.90;99.90
48535;DHT22;34323;52.022;5.686;2023-07-24T11:53:26;25.20;99.90
48535;DHT22;34323;52.022;5.686;2023-07-24T11:55:53;24.50;99.90
48535;DHT22;34323;52.022;5.686;2023-07-24T11:58:20;24.60;99.90
48535;DHT22;34323;52.022;5.686;2023-07-24T12:00:49;25.10;99.90
48535;DHT22;34323;52.022;5.686;2023-07-24T12:03:27;25.50;99.90
48535;DHT22;34323;52.022;5.686;2023-07-24T12:05:53;26.00;99.90
48535;DHT22;34323;52.022;5.686;2023-07-24T12:08:39;25.90;99.90
48535;DHT22;34323;52.022;5.686;2023-07-24T12:11:16;25.20;99.90
48535;DHT22;34323;52.022;5.686;2023-07-24T12:13:42;24.60;99.90
48535;DHT22;34323;52.022;5.686;2023-07-24T12:16:08;24.50;99.90
48535;DHT22;34323;52.022;5.686;2023-07-24T12:18:33;24.60;99.90
48535;DHT22;34323;52.022;5.686;2023-07-24T12:21:00;24.50;99.90
48535;DHT22;34323;52.022;5.686;2023-07-24T12:23:25;24.20;99.90
48535;DHT22;34323;52.022;5.686;2023-07-24T12:25:52;24.10;99.90
48535;DHT22;34323;52.022;5.686;2023-07-24T12:28:17;23.90;99.90
48535;DHT22;34323;52.022;5.686;2023-07-24T12:30:43;23.60;99.90
48535;DHT22;34323;52.022;5.686;2023-07-24T12:33:08;23.80;99.90
48535;DHT22;34323;52.022;5.686;2023-07-24T12:35:34;24.30;99.90
48535;DHT22;34323;52.022;5.686;2023-07-24T12:37:59;24.50;99.90
48535;DHT22;34323;52.022;5.686;2023-07-24T12:40:25;24.20;99.90
48535;DHT22;34323;52.022;5.686;2023-07-24T12:42:50;24.40;99.90
48535;DHT22;34323;52.022;5.686;2023-07-24T12:45:16;24.70;99.90
48535;DHT22;34323;52.022;5.686;2023-07-24T12:47:41;24.90;99.90
48535;DHT22;34323;52.022;5.686;2023-07-24T12:50:07;25.10;99.90
48535;DHT22;34323;52.022;5.686;2023-07-24T12:52:33;24.80;99.90
48535;DHT22;34323;52.022;5.686;2023-07-24T12:54:58;25.10;99.90
48535;DHT22;34323;52.022;5.686;2023-07-24T12:57:24;25.10;99.90
48535;DHT22;34323;52.022;5.686;2023-07-24T12:59:51;24.90;99.90
48535;DHT22;34323;52.022;5.686;2023-07-24T13:02:17;25.20;99.90
48535;DHT22;34323;52.022;5.686;2023-07-24T13:04:42;25.50;99.90
48535;DHT22;34323;52.022;5.686;2023-07-24T13:07:08;25.90;99.90
48535;DHT22;34323;52.022;5.686;2023-07-24T13:09:33;26.40;99.90
48535;DHT22;34323;52.022;5.686;2023-07-24T13:11:59;26.20;99.90
48535;DHT22;34323;52.022;5.686;2023-07-24T13:14:24;26.30;99.90
48535;DHT22;34323;52.022;5.686;2023-07-24T13:16:50;26.60;99.90
48535;DHT22;34323;52.022;5.686;2023-07-24T13:19:16;26.40;99.90
48535;DHT22;34323;52.022;5.686;2023-07-24T13:21:42;26.70;99.90
48535;DHT22;34323;52.022;5.686;2023-07-24T13:24:09;26.70;99.90
48535;DHT22;34323;52.022;5.686;2023-07-24T13:26:34;26.70;99.90
48535;DHT22;34323;52.022;5.686;2023-07-24T13:29:00;27.20;99.90
48535;DHT22;34323;52.022;5.686;2023-07-24T13:31:26;27.40;99.90
48535;DHT22;34323;52.022;5.686;2023-07-24T13:33:53;27.30;99.90
48535;DHT22;34323;52.022;5.686;2023-07-24T13:36:19;27.70;99.90
48535;DHT22;34323;52.022;5.686;2023-07-24T13:38:44;28.40;99.90
48535;DHT22;34323;52.022;5.686;2023-07-24T13:41:10;29.00;99.90
48535;DHT22;34323;52.022;5.686;2023-07-24T13:43:35;29.30;99.90
48535;DHT22;34323;52.022;5.686;2023-07-24T13:46:01;29.70;99.90
48535;DHT22;34323;52.022;5.686;2023-07-24T13:48:30;30.40;99.90
48535;DHT22;34323;52.022;5.686;2023-07-24T13:50:55;31.40;99.90
48535;DHT22;34323;52.022;5.686;2023-07-24T13:53:21;31.10;99.90
48535;DHT22;34323;52.022;5.686;2023-07-24T13:55:47;31.20;99.90
48535;DHT22;34323;52.022;5.686;2023-07-24T13:58:13;31.10;99.90
48535;DHT22;34323;52.022;5.686;2023-07-24T14:00:39;30.80;99.90
48535;DHT22;34323;52.022;5.686;2023-07-24T14:03:04;30.10;99.90
48535;DHT22;34323;52.022;5.686;2023-07-24T14:05:30;29.60;99.90
48535;DHT22;34323;52.022;5.686;2023-07-24T14:07:55;29.10;99.90
48535;DHT22;34323;52.022;5.686;2023-07-24T14:10:21;28.80;99.90
48535;DHT22;34323;52.022;5.686;2023-07-24T14:12:46;28.50;99.90
48535;DHT22;34323;52.022;5.686;2023-07-24T14:15:12;28.20;99.90
48535;DHT22;34323;52.022;5.686;2023-07-24T14:17:38;28.30;99.90
48535;DHT22;34323;52.022;5.686;2023-07-24T14:20:04;28.20;99.90
48535;DHT22;34323;52.022;5.686;2023-07-24T14:22:30;28.00;99.90
48535;DHT22;34323;52.022;5.686;2023-07-24T14:24:56;27.60;99.90
48535;DHT22;34323;52.022;5.686;2023-07-24T14:27:21;27.30;99.90
48535;DHT22;34323;52.022;5.686;2023-07-24T14:29:47;26.90;99.90
48535;DHT22;34323;52.022;5.686;2023-07-24T14:32:13;26.80;99.90
48535;DHT22;34323;52.022;5.686;2023-07-24T14:34:38;26.80;99.90
48535;DHT22;34323;52.022;5.686;2023-07-24T14:37:04;26.90;99.90
48535;DHT22;34323;52.022;5.686;2023-07-24T14:39:30;26.80;99.90
48535;DHT22;34323;52.022;5.686;2023-07-24T14:41:55;26.70;99.90
48535;DHT22;34323;52.022;5.686;2023-07-24T14:44:21;26.40;99.90
48535;DHT22;34323;52.022;5.686;2023-07-24T14:46:46;26.10;99.90
48535;DHT22;34323;52.022;5.686;2023-07-24T14:49:12;26.00;99.90
48535;DHT22;34323;52.022;5.686;2023-07-24T14:51:37;25.70;99.90
48535;DHT22;34323;52.022;5.686;2023-07-24T14:54:03;25.50;99.90
48535;DHT22;34323;52.022;5.686;2023-07-24T14:56:28;25.80;99.90
48535;DHT22;34323;52.022;5.686;2023-07-24T14:58:54;25.60;99.90
48535;DHT22;34323;52.022;5.686;2023-07-24T15:01:20;25.30;99.90
48535;DHT22;34323;52.022;5.686;2023-07-24T15:03:45;25.00;99.90
48535;DHT22;34323;52.022;5.686;2023-07-24T15:06:11;25.10;99.90
48535;DHT22;34323;52.022;5.686;2023-07-24T15:08:36;25.40;99.90
48535;DHT22;34323;52.022;5.686;2023-07-24T15:11:03;25.60;99.90
48535;DHT22;34323;52.022;5.686;2023-07-24T15:13:28;25.80;99.90
48535;DHT22;34323;52.022;5.686;2023-07-24T15:15:54;26.00;99.90
48535;DHT22;34323;52.022;5.686;2023-07-24T15:18:19;26.00;99.90
48535;DHT22;34323;52.022;5.686;2023-07-24T15:20:45;26.20;99.90
48535;DHT22;34323;52.022;5.686;2023-07-24T15:23:10;26.20;99.90
48535;DHT22;34323;52.022;5.686;2023-07-24T15:25:37;26.30;99.90
48535;DHT22;34323;52.022;5.686;2023-07-24T15:28:03;26.30;99.90